createdAt,value
2022-08-18T00:02:17.315Z,26.17
2022-08-18T00:04:49.630Z,25.17
2022-08-18T00:07:19.559Z,24.68
2022-08-18T00:09:48.715Z,24.44
2022-08-18T00:12:19.793Z,24.55
2022-08-18T00:14:48.229Z,24.48
2022-08-18T00:17:16.556Z,24.27
2022-08-18T00:19:47.588Z,24.40
2022-08-18T00:22:18.932Z,24.32
2022-08-18T00:24:49.823Z,23.99
2022-08-18T00:27:22.992Z,23.74
2022-08-18T00:29:52.368Z,23.78
2022-08-18T00:32:23.340Z,23.53
2022-08-18T00:34:50.955Z,23.50
2022-08-18T00:37:18.628Z,23.44
2022-08-18T00:39:47.806Z,23.14
2022-08-18T00:42:27.505Z,23.00
2022-08-18T00:45:00.665Z,22.87
2022-08-18T00:47:33.169Z,22.64
2022-08-18T00:50:14.864Z,22.43
2022-08-18T00:52:45.436Z,21.93
2022-08-18T00:55:14.813Z,21.67
2022-08-18T00:57:43.417Z,21.52
2022-08-18T01:00:15.172Z,21.34
2022-08-18T01:02:45.919Z,21.46
2022-08-18T01:05:19.619Z,21.33
2022-08-18T01:07:49.509Z,21.14
2022-08-18T01:10:21.272Z,21.20
2022-08-18T01:12:51.640Z,21.32
2022-08-18T01:15:28.023Z,21.17
2022-08-18T01:18:15.568Z,21.23
2022-08-18T01:21:14.782Z,21.07
2022-08-18T01:23:43.887Z,21.13
2022-08-18T01:26:11.061Z,21.14
2022-08-18T01:28:40.751Z,21.09
2022-08-18T01:31:10.170Z,21.04
2022-08-18T01:33:42.249Z,21.10
2022-08-18T01:36:14.549Z,21.01
2022-08-18T01:38:44.117Z,21.01
2022-08-18T01:41:27.012Z,20.91
2022-08-18T01:43:56.894Z,20.96
2022-08-18T01:46:24.440Z,20.92
2022-08-18T01:48:52.094Z,20.93
2022-08-18T01:51:34.744Z,20.89
2022-08-18T01:54:11.753Z,20.97
2022-08-18T01:56:40.690Z,20.85
2022-08-18T01:59:10.318Z,20.75
2022-08-18T02:01:46.619Z,20.69
2022-08-18T02:04:34.586Z,20.78
2022-08-18T02:07:06.726Z,20.78
2022-08-18T02:09:37.289Z,20.73
2022-08-18T02:12:07.179Z,20.68
2022-08-18T02:14:34.995Z,20.66
2022-08-18T02:17:04.274Z,20.65
2022-08-18T02:19:34.251Z,20.68
2022-08-18T02:22:02.462Z,20.73
2022-08-18T02:24:30.277Z,20.70
2022-08-18T02:26:59.163Z,20.82
2022-08-18T02:29:26.718Z,20.80
2022-08-18T02:31:54.461Z,20.83
2022-08-18T02:34:22.017Z,20.82
2022-08-18T02:36:49.786Z,20.77
2022-08-18T02:39:17.310Z,20.74
2022-08-18T02:41:45.207Z,20.73
2022-08-18T02:44:14.296Z,20.71
2022-08-18T02:46:41.865Z,20.65
2022-08-18T02:49:09.406Z,20.70
2022-08-18T02:51:37.335Z,20.73
2022-08-18T02:54:09.164Z,20.76
2022-08-18T02:56:41.857Z,20.82
2022-08-18T02:59:13.942Z,20.79
2022-08-18T03:01:46.082Z,20.80
2022-08-18T03:04:15.771Z,20.85
2022-08-18T03:06:45.369Z,20.73
2022-08-18T03:09:14.724Z,20.72
2022-08-18T03:11:43.606Z,20.78
2022-08-18T03:14:12.300Z,20.77
2022-08-18T03:16:52.776Z,20.66
2022-08-18T03:19:24.346Z,20.59
2022-08-18T03:21:52.526Z,20.54
2022-08-18T03:24:22.934Z,20.43
2022-08-18T03:26:52.574Z,20.42
2022-08-18T03:29:21.242Z,20.42
2022-08-18T03:31:49.102Z,20.33
2022-08-18T03:34:19.577Z,20.39
2022-08-18T03:36:49.083Z,20.71
2022-08-18T03:39:17.030Z,21.09
2022-08-18T03:41:59.702Z,20.75
2022-08-18T03:44:31.380Z,21.03
2022-08-18T03:47:00.142Z,20.87
2022-08-18T03:49:27.876Z,21.01
2022-08-18T03:52:00.035Z,20.93
2022-08-18T03:54:27.779Z,21.10
2022-08-18T03:56:55.818Z,21.35
2022-08-18T03:59:26.976Z,22.37
2022-08-18T04:01:55.912Z,22.04
2022-08-18T04:04:26.066Z,22.70
2022-08-18T04:06:58.304Z,23.22
2022-08-18T04:09:27.609Z,23.11
2022-08-18T04:11:55.675Z,22.77
2022-08-18T04:14:26.048Z,22.68
2022-08-18T04:16:53.734Z,22.38
2022-08-18T04:19:26.149Z,22.63
2022-08-18T04:21:57.943Z,23.13
2022-08-18T04:24:28.237Z,23.24
2022-08-18T04:27:01.027Z,23.10
2022-08-18T04:29:29.268Z,23.13
2022-08-18T04:31:56.849Z,23.26
2022-08-18T04:34:24.479Z,23.38
2022-08-18T04:36:53.825Z,23.30
2022-08-18T04:39:23.981Z,23.26
2022-08-18T04:41:52.557Z,23.55
2022-08-18T04:44:21.652Z,23.68
2022-08-18T04:46:52.037Z,23.77
2022-08-18T04:49:21.505Z,23.98
2022-08-18T04:52:38.971Z,24.02
2022-08-18T04:54:54.150Z,24.19
2022-08-18T04:57:22.955Z,24.27
2022-08-18T04:59:52.390Z,24.37
2022-08-18T05:02:22.831Z,24.43
2022-08-18T05:04:52.266Z,24.51
2022-08-18T05:07:22.548Z,24.56
2022-08-18T05:09:50.356Z,24.49
2022-08-18T05:12:19.243Z,24.27
2022-08-18T05:14:51.928Z,24.36
2022-08-18T05:17:19.470Z,24.25
2022-08-18T05:19:47.038Z,24.42
2022-08-18T05:22:19.342Z,24.36
2022-08-18T05:24:53.837Z,24.24
2022-08-18T05:27:22.671Z,24.38
2022-08-18T05:29:51.735Z,24.20
2022-08-18T05:32:41.083Z,24.33
2022-08-18T05:35:12.122Z,24.24
2022-08-18T05:37:49.483Z,24.94
2022-08-18T05:40:17.163Z,25.44
2022-08-18T05:42:48.657Z,25.46
2022-08-18T05:45:18.783Z,25.33
2022-08-18T05:47:47.450Z,25.16
2022-08-18T05:50:18.105Z,25.18
2022-08-18T05:52:52.559Z,25.32
2022-08-18T05:55:47.651Z,24.56
2022-08-18T05:58:20.817Z,24.32
2022-08-18T06:00:57.513Z,23.74
2022-08-18T06:03:45.282Z,23.02
2022-08-18T06:06:19.397Z,23.29
2022-08-18T06:08:53.716Z,24.20
2022-08-18T06:11:22.201Z,25.18
2022-08-18T06:13:54.223Z,25.85
2022-08-18T06:16:37.992Z,26.02
2022-08-18T06:19:27.291Z,27.05
2022-08-18T06:22:03.593Z,28.40
2022-08-18T06:24:36.967Z,30.09
2022-08-18T06:27:15.825Z,30.06
2022-08-18T06:29:57.931Z,30.73
2022-08-18T06:32:31.146Z,32.27
2022-08-18T06:35:11.735Z,33.67
2022-08-18T06:38:00.550Z,34.73
2022-08-18T06:40:28.103Z,34.31
2022-08-18T06:42:55.742Z,33.78
2022-08-18T06:45:40.132Z,31.69
2022-08-18T06:48:15.271Z,34.06
2022-08-18T06:50:50.032Z,35.43
2022-08-18T06:53:26.415Z,34.91
2022-08-18T06:55:56.215Z,36.11
2022-08-18T06:58:29.923Z,36.78
2022-08-18T07:01:03.118Z,35.15
2022-08-18T07:03:47.596Z,33.52
2022-08-18T07:06:29.241Z,34.83
2022-08-18T07:09:20.606Z,35.37
2022-08-18T07:12:01.104Z,37.56
2022-08-18T07:14:28.669Z,39.48
2022-08-18T07:17:09.351Z,35.83
2022-08-18T07:19:37.144Z,36.86
2022-08-18T07:22:08.876Z,32.92
2022-08-18T07:24:41.501Z,33.17
2022-08-18T07:27:11.288Z,29.59
2022-08-18T07:29:40.741Z,31.69
2022-08-18T07:32:21.524Z,32.82
2022-08-18T07:34:55.070Z,31.06
2022-08-18T07:37:29.001Z,29.54
2022-08-18T07:40:02.299Z,29.99
2022-08-18T07:42:53.851Z,30.26
2022-08-18T07:45:27.900Z,28.83
2022-08-18T07:48:15.675Z,26.81
2022-08-18T07:51:01.447Z,28.36
2022-08-18T07:53:40.173Z,29.80
2022-08-18T07:56:18.599Z,30.81
2022-08-18T07:58:53.244Z,30.57
2022-08-18T08:01:29.656Z,30.48
2022-08-18T08:04:25.266Z,30.25
2022-08-18T08:07:23.427Z,30.28
2022-08-18T08:09:58.347Z,29.96
2022-08-18T08:12:36.957Z,28.53
2022-08-18T08:15:13.576Z,28.93
2022-08-18T08:17:49.153Z,31.08
2022-08-18T08:20:32.513Z,32.10
2022-08-18T08:23:10.525Z,31.85
2022-08-18T08:25:48.349Z,30.80
2022-08-18T08:28:27.035Z,30.52
2022-08-18T08:31:25.665Z,30.45
2022-08-18T08:33:56.895Z,29.10
2022-08-18T08:36:31.074Z,30.91
2022-08-18T08:39:03.356Z,30.41
2022-08-18T08:41:37.434Z,28.70
2022-08-18T08:44:10.537Z,28.57
2022-08-18T08:46:46.450Z,29.48
2022-08-18T08:49:26.377Z,30.89
2022-08-18T08:51:59.254Z,31.33
2022-08-18T08:54:31.633Z,31.90
2022-08-18T08:57:02.168Z,32.71
2022-08-18T08:59:29.738Z,30.20
2022-08-18T09:02:09.296Z,30.89
2022-08-18T09:05:04.882Z,31.94
2022-08-18T09:07:50.531Z,30.66
2022-08-18T09:10:48.366Z,30.96
2022-08-18T09:13:38.547Z,31.65
2022-08-18T09:16:29.505Z,31.90
2022-08-18T09:19:13.669Z,32.41
2022-08-18T09:21:46.778Z,32.46
2022-08-18T09:24:25.693Z,32.44
2022-08-18T09:27:13.703Z,32.26
2022-08-18T09:29:51.577Z,32.22
2022-08-18T09:32:56.720Z,31.73
2022-08-18T09:35:45.516Z,29.31
2022-08-18T09:38:42.754Z,29.90
2022-08-18T09:41:33.176Z,30.48
2022-08-18T09:44:21.325Z,30.65
2022-08-18T09:46:58.693Z,32.62
2022-08-18T09:49:41.606Z,34.25
2022-08-18T09:52:55.737Z,34.97
2022-08-18T09:55:42.470Z,33.99
2022-08-18T09:58:52.686Z,33.94
2022-08-18T10:01:43.309Z,35.01
2022-08-18T10:04:29.384Z,35.13
2022-08-18T10:07:17.338Z,36.82
2022-08-18T10:09:54.836Z,37.36
2022-08-18T10:12:53.502Z,37.94
2022-08-18T10:15:35.517Z,37.73
2022-08-18T10:18:18.804Z,37.46
2022-08-18T10:20:57.078Z,35.38
2022-08-18T10:23:49.517Z,34.15
2022-08-18T10:27:05.518Z,35.13
2022-08-18T10:29:56.546Z,36.99
2022-08-18T10:32:52.098Z,37.82
2022-08-18T10:35:56.403Z,36.11
2022-08-18T10:38:30.772Z,33.93
2022-08-18T10:41:15.345Z,31.75
2022-08-18T10:43:57.228Z,33.81
2022-08-18T10:49:25.975Z,37.03
2022-08-18T10:52:17.107Z,34.88
2022-08-18T10:55:10.543Z,35.68
2022-08-18T10:57:55.218Z,37.62
2022-08-18T11:00:37.761Z,38.73
2022-08-18T11:03:40.005Z,38.27
2022-08-18T11:06:14.507Z,38.34
2022-08-18T11:08:48.668Z,37.39
2022-08-18T11:11:34.617Z,32.61
2022-08-18T11:14:23.545Z,32.57
2022-08-18T11:16:59.774Z,32.32
2022-08-18T11:19:28.311Z,32.74
2022-08-18T11:21:57.429Z,33.20
2022-08-18T11:24:28.593Z,33.56
2022-08-18T11:26:58.867Z,34.29
2022-08-18T11:29:32.430Z,33.04
2022-08-18T11:32:11.089Z,34.49
2022-08-18T11:34:51.950Z,35.05
2022-08-18T11:37:27.994Z,34.98
2022-08-18T11:49:16.143Z,34.17
2022-08-18T11:51:57.128Z,32.14
2022-08-18T11:57:46.258Z,33.38
2022-08-18T12:00:52.769Z,34.94
2022-08-18T12:06:23.586Z,37.01
2022-08-18T12:08:59.338Z,37.94
2022-08-18T12:11:31.004Z,38.23
2022-08-18T12:14:31.161Z,38.34
2022-08-18T12:16:51.221Z,38.44
2022-08-18T12:19:24.212Z,37.80
2022-08-18T12:21:54.576Z,37.11
2022-08-18T12:24:26.321Z,36.64
2022-08-18T12:29:47.622Z,36.43
2022-08-18T12:32:17.883Z,34.63
2022-08-18T12:35:09.524Z,34.90
2022-08-18T12:40:26.392Z,36.04
2022-08-18T12:42:55.756Z,36.77
2022-08-18T12:45:25.775Z,37.42
2022-08-18T12:47:54.688Z,35.25
2022-08-18T12:50:31.099Z,31.95
2022-08-18T12:53:01.477Z,32.77
2022-08-18T12:55:34.785Z,33.49
2022-08-18T12:58:05.239Z,33.19
2022-08-18T13:00:33.401Z,34.27
2022-08-18T13:03:00.934Z,34.53
2022-08-18T13:05:29.874Z,35.02
2022-08-18T13:08:04.237Z,36.19
2022-08-18T13:10:44.847Z,35.97
2022-08-18T13:13:16.189Z,35.68
2022-08-18T13:15:55.364Z,35.85
2022-08-18T13:18:27.299Z,34.82
2022-08-18T13:20:56.989Z,33.96
2022-08-18T13:23:25.290Z,34.86
2022-08-18T13:26:01.782Z,35.44
2022-08-18T13:28:35.602Z,32.33
2022-08-18T13:31:05.502Z,32.42
2022-08-18T13:33:34.991Z,32.32
2022-08-18T13:36:22.273Z,32.34
2022-08-18T13:38:50.936Z,33.48
2022-08-18T13:43:53.597Z,34.31
2022-08-18T13:46:24.230Z,35.50
2022-08-18T13:49:03.049Z,36.82
2022-08-18T13:51:31.318Z,37.71
2022-08-18T13:54:18.335Z,37.91
2022-08-18T13:56:52.109Z,37.44
2022-08-18T13:59:22.623Z,37.51
2022-08-18T14:01:52.955Z,37.34
2022-08-18T14:04:23.173Z,37.05
2022-08-18T14:06:58.783Z,35.73
2022-08-18T14:09:37.038Z,35.86
2022-08-18T14:12:15.274Z,34.45
2022-08-18T14:14:51.965Z,34.40
2022-08-18T14:17:19.887Z,34.85
2022-08-18T14:20:10.169Z,34.88
2022-08-18T14:22:56.143Z,34.80
2022-08-18T14:25:42.115Z,34.67
2022-08-18T14:28:11.924Z,34.53
2022-08-18T14:30:41.169Z,34.08
2022-08-18T14:33:21.472Z,34.44
2022-08-18T14:36:07.052Z,34.61
2022-08-18T14:38:38.179Z,34.34
2022-08-18T14:41:08.070Z,34.46
2022-08-18T14:44:00.448Z,34.70
2022-08-18T14:46:30.516Z,34.98
2022-08-18T14:49:04.056Z,35.25
2022-08-18T14:51:33.412Z,35.33
2022-08-18T14:54:01.659Z,35.19
2022-08-18T14:56:36.489Z,35.37
2022-08-18T14:59:07.605Z,35.34
2022-08-18T15:01:42.780Z,35.09
2022-08-18T15:04:18.302Z,34.95
2022-08-18T15:06:56.133Z,34.71
2022-08-18T15:09:27.269Z,34.98
2022-08-18T15:11:55.895Z,34.37
2022-08-18T15:14:26.621Z,34.06
2022-08-18T15:17:03.731Z,34.03
2022-08-18T15:20:00.521Z,33.93
2022-08-18T15:22:47.818Z,33.56
2022-08-18T15:25:33.640Z,33.20
2022-08-18T15:28:01.391Z,33.90
2022-08-18T15:30:29.112Z,34.30
2022-08-18T15:32:58.891Z,34.25
2022-08-18T15:35:26.678Z,34.69
2022-08-18T15:37:55.208Z,35.29
2022-08-18T15:40:35.445Z,35.49
2022-08-18T15:43:09.829Z,35.79
2022-08-18T15:45:56.244Z,35.91
2022-08-18T15:48:28.759Z,35.87
2022-08-18T15:50:57.008Z,35.87
2022-08-18T15:53:44.425Z,32.79
2022-08-18T15:56:14.923Z,33.80
2022-08-18T15:58:42.464Z,33.59
2022-08-18T16:01:29.957Z,34.01
2022-08-18T16:04:01.050Z,34.45
2022-08-18T16:06:32.272Z,34.57
2022-08-18T16:09:01.949Z,34.70
2022-08-18T16:11:30.039Z,34.83
2022-08-18T16:13:59.068Z,34.38
2022-08-18T16:16:35.712Z,34.37
2022-08-18T16:19:06.709Z,34.01
2022-08-18T16:21:36.296Z,33.67
2022-08-18T16:24:04.321Z,33.34
2022-08-18T16:26:31.831Z,33.32
2022-08-18T16:29:01.792Z,32.96
2022-08-18T16:31:29.924Z,33.05
2022-08-18T16:33:58.695Z,33.03
2022-08-18T16:36:27.556Z,32.54
2022-08-18T16:38:58.279Z,32.35
2022-08-18T16:41:26.870Z,32.23
2022-08-18T16:43:54.678Z,32.10
2022-08-18T16:46:25.250Z,31.84
2022-08-18T16:48:53.259Z,31.33
2022-08-18T16:51:22.876Z,30.87
2022-08-18T16:53:53.470Z,30.31
2022-08-18T16:56:23.854Z,30.36
2022-08-18T16:59:09.950Z,30.51
2022-08-18T17:01:56.493Z,30.62
2022-08-18T17:04:28.704Z,30.48
2022-08-18T17:06:57.634Z,30.56
2022-08-18T17:09:27.060Z,30.57
2022-08-18T17:11:55.015Z,30.82
2022-08-18T17:14:24.876Z,31.02
2022-08-18T17:16:55.042Z,30.79
2022-08-18T17:19:24.138Z,30.34
2022-08-18T17:21:51.775Z,30.07
2022-08-18T17:24:31.412Z,30.44
2022-08-18T17:27:25.713Z,30.12
2022-08-18T17:30:00.440Z,29.45
2022-08-18T17:32:31.577Z,28.93
2022-08-18T17:35:04.959Z,29.12
2022-08-18T17:37:34.283Z,29.34
2022-08-18T17:40:07.989Z,29.30
2022-08-18T17:42:40.423Z,29.06
2022-08-18T17:45:13.779Z,28.77
2022-08-18T17:47:56.075Z,28.40
2022-08-18T17:50:45.863Z,28.40
2022-08-18T17:53:13.587Z,28.75
2022-08-18T17:55:45.826Z,28.85
2022-08-18T17:58:20.787Z,28.92
2022-08-18T18:00:48.371Z,29.06
2022-08-18T18:03:15.871Z,29.04
2022-08-18T18:05:46.155Z,29.31
2022-08-18T18:08:13.797Z,28.92
2022-08-18T18:11:02.254Z,28.69
2022-08-18T18:13:33.764Z,28.43
2022-08-18T18:16:03.548Z,28.12
2022-08-18T18:18:41.630Z,27.41
2022-08-18T18:21:21.628Z,26.72
2022-08-18T18:23:52.091Z,26.53
2022-08-18T18:26:28.270Z,25.99
2022-08-18T18:29:19.791Z,25.66
2022-08-18T18:31:58.412Z,25.50
2022-08-18T18:34:30.144Z,25.19
2022-08-18T18:36:59.407Z,25.13
2022-08-18T18:39:33.906Z,25.25
2022-08-18T18:42:17.546Z,25.06
2022-08-18T18:44:53.154Z,25.15
2022-08-18T18:47:58.689Z,25.07
2022-08-18T18:50:33.479Z,25.25
2022-08-18T18:53:13.136Z,25.31
2022-08-18T18:55:49.534Z,25.39
2022-08-18T18:58:27.309Z,25.22
2022-08-18T19:01:00.305Z,25.16
2022-08-18T19:03:33.973Z,25.70
2022-08-18T19:06:15.317Z,26.25
2022-08-18T19:08:54.116Z,25.02
2022-08-18T19:11:29.002Z,25.30
2022-08-18T19:14:03.695Z,24.89
2022-08-18T19:16:41.720Z,23.94
2022-08-18T19:19:35.348Z,23.21
2022-08-18T19:22:10.367Z,22.77
2022-08-18T19:24:46.737Z,22.36
2022-08-18T19:27:23.611Z,21.94
2022-08-18T19:29:55.534Z,21.73
2022-08-18T19:32:34.775Z,21.44
2022-08-18T19:35:04.422Z,21.36
2022-08-18T19:37:53.861Z,21.09
2022-08-18T19:40:28.266Z,20.95
2022-08-18T19:43:01.938Z,20.82
2022-08-18T19:45:37.160Z,20.98
2022-08-18T19:48:17.694Z,21.06
2022-08-18T19:50:52.266Z,20.86
2022-08-18T19:53:52.966Z,20.55
2022-08-18T19:56:34.800Z,20.62
2022-08-18T19:59:19.624Z,20.51
2022-08-18T20:01:58.624Z,20.57
2022-08-18T20:04:44.467Z,20.40
2022-08-18T20:07:29.941Z,20.26
2022-08-18T20:10:14.650Z,20.32
2022-08-18T20:13:01.960Z,20.33
2022-08-18T20:15:31.026Z,20.27
2022-08-18T20:18:06.407Z,20.15
2022-08-18T20:20:38.556Z,20.21
2022-08-18T20:23:31.476Z,20.17
2022-08-18T20:25:59.001Z,20.14
2022-08-18T20:28:35.720Z,20.16
2022-08-18T20:31:12.449Z,20.08
2022-08-18T20:33:46.676Z,20.16
2022-08-18T20:36:24.986Z,20.16
2022-08-18T20:38:55.107Z,20.14
2022-08-18T20:41:31.957Z,20.30
2022-08-18T20:44:05.160Z,20.36
2022-08-18T20:46:43.802Z,20.49
2022-08-18T20:49:23.738Z,20.50
2022-08-18T20:52:04.052Z,20.78
2022-08-18T20:54:58.232Z,20.75
2022-08-18T20:57:34.807Z,20.80
2022-08-18T21:00:13.108Z,21.34
2022-08-18T21:02:46.973Z,21.77
2022-08-18T21:05:18.378Z,21.99
2022-08-18T21:08:04.921Z,22.29
2022-08-18T21:10:34.315Z,23.02
2022-08-18T21:13:04.277Z,23.29
2022-08-18T21:15:35.908Z,23.22
2022-08-18T21:18:06.387Z,23.50
2022-08-18T21:20:35.327Z,23.57
2022-08-18T21:23:08.198Z,23.64
2022-08-18T21:25:36.557Z,23.63
2022-08-18T21:28:07.102Z,23.23
2022-08-18T21:30:34.839Z,23.33
2022-08-18T21:33:17.760Z,23.22
2022-08-18T21:35:45.280Z,22.38
2022-08-18T21:38:14.134Z,22.05
2022-08-18T21:40:45.370Z,21.72
2022-08-18T21:43:16.209Z,21.42
2022-08-18T21:45:47.974Z,21.14
2022-08-18T21:48:16.087Z,21.49
2022-08-18T21:50:50.945Z,21.78
2022-08-18T21:53:28.161Z,22.00
2022-08-18T21:55:57.315Z,22.00
2022-08-18T21:58:33.705Z,22.14
2022-08-18T22:01:13.952Z,22.92
2022-08-18T22:03:57.686Z,23.28
2022-08-18T22:06:30.856Z,23.41
2022-08-18T22:09:24.260Z,23.36
2022-08-18T22:12:47.091Z,23.41
2022-08-18T22:15:19.815Z,23.42
2022-08-18T22:17:54.483Z,23.36
2022-08-18T22:20:42.870Z,22.62
2022-08-18T22:23:54.235Z,21.88
2022-08-18T22:26:26.946Z,20.85
2022-08-18T22:29:00.122Z,20.37
2022-08-18T22:31:32.830Z,20.42
2022-08-18T22:34:07.179Z,20.26
2022-08-18T22:36:38.912Z,20.34
2022-08-18T22:39:08.470Z,20.37
2022-08-18T22:41:36.645Z,20.33
2022-08-18T22:44:05.548Z,20.44
2022-08-18T22:46:35.288Z,20.46
2022-08-18T22:49:03.283Z,20.90
2022-08-18T22:51:32.832Z,20.95
2022-08-18T22:54:00.598Z,20.84
2022-08-18T22:56:35.059Z,20.44
2022-08-18T22:59:16.039Z,20.39
2022-08-18T23:01:50.906Z,20.21
2022-08-18T23:04:20.915Z,20.43
2022-08-18T23:06:51.845Z,20.26
2022-08-18T23:09:21.899Z,20.47
2022-08-18T23:11:49.458Z,20.34
2022-08-18T23:14:17.070Z,20.63
2022-08-18T23:16:45.481Z,20.72
2022-08-18T23:19:16.151Z,20.83
2022-08-18T23:21:44.573Z,20.76
2022-08-18T23:24:14.503Z,20.84
2022-08-18T23:26:42.712Z,20.72
2022-08-18T23:29:11.574Z,20.68
2022-08-18T23:31:41.306Z,20.33
2022-08-18T23:34:09.592Z,20.20
2022-08-18T23:36:41.231Z,20.13
2022-08-18T23:39:11.735Z,20.34
2022-08-18T23:41:39.656Z,20.56
2022-08-18T23:44:07.388Z,20.92
2022-08-18T23:46:35.703Z,20.71
2022-08-18T23:49:10.803Z,20.32
2022-08-18T23:51:44.109Z,20.09
2022-08-18T23:54:14.922Z,19.96
2022-08-18T23:56:42.463Z,19.97
2022-08-18T23:59:10.570Z,20.05
